sensor_id;sensor_type;location;lat;lon;timestamp;P1;durP1;ratioP1;P2;durP2;ratioP2
66761;SDS011;53672;48.176;16.338;2023-06-10T00:00:44;9.40;;;4.23;;
66761;SDS011;53672;48.176;16.338;2023-06-10T00:05:45;8.43;;;4.33;;
66761;SDS011;53672;48.176;16.338;2023-06-10T00:10:46;9.97;;;4.60;;
66761;SDS011;53672;48.176;16.338;2023-06-10T00:15:47;10.93;;;4.75;;
66761;SDS011;53672;48.176;16.338;2023-06-10T00:20:47;8.63;;;4.77;;
66761;SDS011;53672;48.176;16.338;2023-06-10T00:25:49;8.90;;;4.63;;
66761;SDS011;53672;48.176;16.338;2023-06-10T00:30:50;8.40;;;4.55;;
66761;SDS011;53672;48.176;16.338;2023-06-10T00:35:50;7.97;;;4.43;;
66761;SDS011;53672;48.176;16.338;2023-06-10T00:40:52;8.57;;;4.80;;
66761;SDS011;53672;48.176;16.338;2023-06-10T00:45:53;8.15;;;4.38;;
66761;SDS011;53672;48.176;16.338;2023-06-10T00:50:54;9.13;;;4.82;;
66761;SDS011;53672;48.176;16.338;2023-06-10T00:55:56;9.02;;;4.88;;
66761;SDS011;53672;48.176;16.338;2023-06-10T01:00:57;10.70;;;4.47;;
66761;SDS011;53672;48.176;16.338;2023-06-10T01:05:59;8.43;;;4.25;;
66761;SDS011;53672;48.176;16.338;2023-06-10T01:11:19;8.18;;;4.22;;
66761;SDS011;53672;48.176;16.338;2023-06-10T01:16:25;8.00;;;4.72;;
66761;SDS011;53672;48.176;16.338;2023-06-10T01:21:26;8.70;;;4.90;;
66761;SDS011;53672;48.176;16.338;2023-06-10T01:26:28;7.75;;;4.82;;
66761;SDS011;53672;48.176;16.338;2023-06-10T01:31:33;8.23;;;4.63;;
66761;SDS011;53672;48.176;16.338;2023-06-10T01:36:42;7.68;;;4.32;;
66761;SDS011;53672;48.176;16.338;2023-06-10T01:41:45;11.23;;;4.40;;
66761;SDS011;53672;48.176;16.338;2023-06-10T01:46:48;9.35;;;4.55;;
66761;SDS011;53672;48.176;16.338;2023-06-10T01:51:50;8.30;;;4.33;;
66761;SDS011;53672;48.176;16.338;2023-06-10T01:56:51;8.18;;;4.68;;
66761;SDS011;53672;48.176;16.338;2023-06-10T02:01:51;7.60;;;4.63;;
66761;SDS011;53672;48.176;16.338;2023-06-10T02:06:53;8.63;;;4.40;;
66761;SDS011;53672;48.176;16.338;2023-06-10T02:11:54;7.75;;;4.50;;
66761;SDS011;53672;48.176;16.338;2023-06-10T02:16:54;8.73;;;4.63;;
66761;SDS011;53672;48.176;16.338;2023-06-10T02:21:56;11.97;;;5.20;;
66761;SDS011;53672;48.176;16.338;2023-06-10T02:26:56;8.75;;;4.72;;
66761;SDS011;53672;48.176;16.338;2023-06-10T02:31:57;8.43;;;5.00;;
66761;SDS011;53672;48.176;16.338;2023-06-10T02:36:59;9.83;;;5.37;;
66761;SDS011;53672;48.176;16.338;2023-06-10T02:41:59;11.07;;;5.80;;
66761;SDS011;53672;48.176;16.338;2023-06-10T02:47:00;10.93;;;5.50;;
66761;SDS011;53672;48.176;16.338;2023-06-10T02:52:02;10.18;;;5.63;;
66761;SDS011;53672;48.176;16.338;2023-06-10T02:57:02;11.10;;;5.80;;
66761;SDS011;53672;48.176;16.338;2023-06-10T03:02:03;10.40;;;5.83;;
66761;SDS011;53672;48.176;16.338;2023-06-10T03:07:06;9.07;;;5.47;;
66761;SDS011;53672;48.176;16.338;2023-06-10T03:12:07;12.38;;;5.32;;
66761;SDS011;53672;48.176;16.338;2023-06-10T03:17:08;11.80;;;6.10;;
66761;SDS011;53672;48.176;16.338;2023-06-10T03:22:10;8.93;;;5.47;;
66761;SDS011;53672;48.176;16.338;2023-06-10T03:27:12;10.30;;;5.82;;
66761;SDS011;53672;48.176;16.338;2023-06-10T03:32:12;11.27;;;6.03;;
66761;SDS011;53672;48.176;16.338;2023-06-10T03:37:14;9.57;;;5.77;;
66761;SDS011;53672;48.176;16.338;2023-06-10T03:42:15;10.98;;;5.88;;
66761;SDS011;53672;48.176;16.338;2023-06-10T03:47:15;12.10;;;6.20;;
66761;SDS011;53672;48.176;16.338;2023-06-10T03:52:17;11.13;;;6.60;;
66761;SDS011;53672;48.176;16.338;2023-06-10T03:57:17;12.43;;;6.63;;
66761;SDS011;53672;48.176;16.338;2023-06-10T04:02:18;12.40;;;7.00;;
66761;SDS011;53672;48.176;16.338;2023-06-10T04:07:20;13.00;;;7.23;;
66761;SDS011;53672;48.176;16.338;2023-06-10T04:12:20;14.98;;;7.18;;
66761;SDS011;53672;48.176;16.338;2023-06-10T04:17:21;11.10;;;6.10;;
66761;SDS011;53672;48.176;16.338;2023-06-10T04:22:23;14.30;;;6.93;;
66761;SDS011;53672;48.176;16.338;2023-06-10T04:27:23;13.53;;;7.13;;
66761;SDS011;53672;48.176;16.338;2023-06-10T04:32:24;11.43;;;6.83;;
66761;SDS011;53672;48.176;16.338;2023-06-10T04:37:25;11.82;;;6.57;;
66761;SDS011;53672;48.176;16.338;2023-06-10T04:42:26;13.15;;;7.13;;
66761;SDS011;53672;48.176;16.338;2023-06-10T04:47:26;14.47;;;7.70;;
66761;SDS011;53672;48.176;16.338;2023-06-10T04:52:28;13.07;;;7.93;;
66761;SDS011;53672;48.176;16.338;2023-06-10T04:57:29;14.02;;;7.70;;
66761;SDS011;53672;48.176;16.338;2023-06-10T05:02:29;11.23;;;7.27;;
66761;SDS011;53672;48.176;16.338;2023-06-10T05:07:31;12.23;;;7.23;;
66761;SDS011;53672;48.176;16.338;2023-06-10T05:12:32;13.82;;;8.30;;
66761;SDS011;53672;48.176;16.338;2023-06-10T05:17:32;14.40;;;8.00;;
66761;SDS011;53672;48.176;16.338;2023-06-10T05:22:34;14.33;;;8.60;;
66761;SDS011;53672;48.176;16.338;2023-06-10T05:27:34;17.17;;;9.73;;
66761;SDS011;53672;48.176;16.338;2023-06-10T05:32:35;16.10;;;9.50;;
66761;SDS011;53672;48.176;16.338;2023-06-10T05:37:37;17.67;;;9.97;;
66761;SDS011;53672;48.176;16.338;2023-06-10T05:42:38;16.48;;;10.02;;
66761;SDS011;53672;48.176;16.338;2023-06-10T05:47:38;17.53;;;10.17;;
66761;SDS011;53672;48.176;16.338;2023-06-10T05:52:40;18.07;;;11.23;;
66761;SDS011;53672;48.176;16.338;2023-06-10T05:57:41;18.67;;;11.18;;
66761;SDS011;53672;48.176;16.338;2023-06-10T06:02:41;20.37;;;11.37;;
66761;SDS011;53672;48.176;16.338;2023-06-10T06:07:43;18.33;;;11.70;;
66761;SDS011;53672;48.176;16.338;2023-06-10T06:12:44;18.75;;;11.25;;
66761;SDS011;53672;48.176;16.338;2023-06-10T06:17:44;20.17;;;12.13;;
66761;SDS011;53672;48.176;16.338;2023-06-10T06:22:46;22.40;;;12.40;;
66761;SDS011;53672;48.176;16.338;2023-06-10T06:27:47;22.27;;;12.23;;
66761;SDS011;53672;48.176;16.338;2023-06-10T06:32:47;22.07;;;12.20;;
66761;SDS011;53672;48.176;16.338;2023-06-10T06:37:49;23.90;;;13.77;;
66761;SDS011;53672;48.176;16.338;2023-06-10T06:42:50;24.60;;;13.38;;
66761;SDS011;53672;48.176;16.338;2023-06-10T06:47:50;27.23;;;13.37;;
66761;SDS011;53672;48.176;16.338;2023-06-10T06:52:52;21.73;;;12.73;;
66761;SDS011;53672;48.176;16.338;2023-06-10T06:57:52;23.45;;;13.70;;
66761;SDS011;53672;48.176;16.338;2023-06-10T07:02:53;28.10;;;13.97;;
66761;SDS011;53672;48.176;16.338;2023-06-10T07:07:55;27.73;;;14.17;;
66761;SDS011;53672;48.176;16.338;2023-06-10T07:12:55;26.67;;;14.87;;
66761;SDS011;53672;48.176;16.338;2023-06-10T07:17:56;26.77;;;14.93;;
66761;SDS011;53672;48.176;16.338;2023-06-10T07:22:57;25.17;;;13.70;;
66761;SDS011;53672;48.176;16.338;2023-06-10T07:27:58;22.50;;;12.27;;
66761;SDS011;53672;48.176;16.338;2023-06-10T07:32:58;23.60;;;13.93;;
66761;SDS011;53672;48.176;16.338;2023-06-10T07:38:00;23.53;;;13.13;;
66761;SDS011;53672;48.176;16.338;2023-06-10T07:43:01;23.40;;;13.20;;
66761;SDS011;53672;48.176;16.338;2023-06-10T07:48:01;21.93;;;13.40;;
66761;SDS011;53672;48.176;16.338;2023-06-10T07:53:03;21.37;;;13.30;;
66761;SDS011;53672;48.176;16.338;2023-06-10T07:58:04;23.95;;;13.73;;
66761;SDS011;53672;48.176;16.338;2023-06-10T08:03:04;23.20;;;14.13;;
66761;SDS011;53672;48.176;16.338;2023-06-10T08:08:06;20.43;;;12.43;;
66761;SDS011;53672;48.176;16.338;2023-06-10T08:13:07;21.05;;;11.68;;
66761;SDS011;53672;48.176;16.338;2023-06-10T08:18:08;20.13;;;11.93;;
66761;SDS011;53672;48.176;16.338;2023-06-10T08:23:09;21.47;;;12.00;;
66761;SDS011;53672;48.176;16.338;2023-06-10T08:28:10;20.02;;;11.43;;
66761;SDS011;53672;48.176;16.338;2023-06-10T08:33:10;19.43;;;11.47;;
66761;SDS011;53672;48.176;16.338;2023-06-10T08:38:12;19.67;;;12.07;;
66761;SDS011;53672;48.176;16.338;2023-06-10T08:43:17;22.33;;;12.82;;
66761;SDS011;53672;48.176;16.338;2023-06-10T08:48:22;21.80;;;12.30;;
66761;SDS011;53672;48.176;16.338;2023-06-10T08:53:24;22.00;;;12.60;;
66761;SDS011;53672;48.176;16.338;2023-06-10T08:58:26;20.27;;;11.88;;
66761;SDS011;53672;48.176;16.338;2023-06-10T09:03:28;19.50;;;12.17;;
66761;SDS011;53672;48.176;16.338;2023-06-10T09:08:30;20.73;;;11.70;;
66761;SDS011;53672;48.176;16.338;2023-06-10T09:13:31;20.40;;;12.47;;
66761;SDS011;53672;48.176;16.338;2023-06-10T09:18:31;18.52;;;12.02;;
66761;SDS011;53672;48.176;16.338;2023-06-10T09:23:33;16.93;;;11.00;;
66761;SDS011;53672;48.176;16.338;2023-06-10T09:28:35;17.23;;;11.60;;
66761;SDS011;53672;48.176;16.338;2023-06-10T09:33:36;16.57;;;11.20;;
66761;SDS011;53672;48.176;16.338;2023-06-10T09:38:39;17.17;;;11.30;;
66761;SDS011;53672;48.176;16.338;2023-06-10T09:43:40;17.75;;;11.73;;
66761;SDS011;53672;48.176;16.338;2023-06-10T09:48:41;15.93;;;11.25;;
66761;SDS011;53672;48.176;16.338;2023-06-10T09:53:43;16.43;;;10.77;;
66761;SDS011;53672;48.176;16.338;2023-06-10T09:58:49;14.18;;;10.20;;
66761;SDS011;53672;48.176;16.338;2023-06-10T10:03:53;13.40;;;9.67;;
66761;SDS011;53672;48.176;16.338;2023-06-10T10:08:55;13.52;;;9.68;;
66761;SDS011;53672;48.176;16.338;2023-06-10T10:13:56;11.85;;;9.30;;
66761;SDS011;53672;48.176;16.338;2023-06-10T10:18:59;11.60;;;9.07;;
66761;SDS011;53672;48.176;16.338;2023-06-10T10:24:09;12.60;;;9.27;;
66761;SDS011;53672;48.176;16.338;2023-06-10T10:29:16;13.32;;;9.32;;
66761;SDS011;53672;48.176;16.338;2023-06-10T10:34:24;13.65;;;9.23;;
66761;SDS011;53672;48.176;16.338;2023-06-10T10:39:31;12.13;;;10.07;;
66761;SDS011;53672;48.176;16.338;2023-06-10T10:44:34;12.02;;;9.20;;
66761;SDS011;53672;48.176;16.338;2023-06-10T10:49:34;12.67;;;8.70;;
66761;SDS011;53672;48.176;16.338;2023-06-10T10:54:39;12.02;;;9.75;;
66761;SDS011;53672;48.176;16.338;2023-06-10T10:59:44;10.13;;;8.80;;
66761;SDS011;53672;48.176;16.338;2023-06-10T11:04:46;10.77;;;8.65;;
66761;SDS011;53672;48.176;16.338;2023-06-10T11:10:02;10.38;;;9.27;;
66761;SDS011;53672;48.176;16.338;2023-06-10T11:15:03;11.10;;;8.70;;
66761;SDS011;53672;48.176;16.338;2023-06-10T11:20:04;9.30;;;8.25;;
66761;SDS011;53672;48.176;16.338;2023-06-10T11:25:07;10.57;;;8.67;;
66761;SDS011;53672;48.176;16.338;2023-06-10T11:30:20;9.20;;;8.18;;
66761;SDS011;53672;48.176;16.338;2023-06-10T11:35:23;9.85;;;8.52;;
66761;SDS011;53672;48.176;16.338;2023-06-10T11:40:25;10.50;;;8.68;;
66761;SDS011;53672;48.176;16.338;2023-06-10T11:45:26;10.63;;;9.52;;
66761;SDS011;53672;48.176;16.338;2023-06-10T11:50:30;12.33;;;10.03;;
66761;SDS011;53672;48.176;16.338;2023-06-10T12:00:49;10.88;;;9.60;;
66761;SDS011;53672;48.176;16.338;2023-06-10T12:05:57;11.10;;;8.68;;
66761;SDS011;53672;48.176;16.338;2023-06-10T12:10:59;10.27;;;8.83;;
66761;SDS011;53672;48.176;16.338;2023-06-10T12:16:07;10.45;;;8.48;;
66761;SDS011;53672;48.176;16.338;2023-06-10T12:21:15;10.27;;;9.00;;
66761;SDS011;53672;48.176;16.338;2023-06-10T12:26:17;11.02;;;8.68;;
66761;SDS011;53672;48.176;16.338;2023-06-10T12:31:18;10.10;;;8.80;;
66761;SDS011;53672;48.176;16.338;2023-06-10T12:36:18;10.20;;;9.10;;
66761;SDS011;53672;48.176;16.338;2023-06-10T12:41:20;12.40;;;9.17;;
66761;SDS011;53672;48.176;16.338;2023-06-10T12:46:21;10.20;;;8.00;;
66761;SDS011;53672;48.176;16.338;2023-06-10T12:51:21;10.70;;;7.80;;
66761;SDS011;53672;48.176;16.338;2023-06-10T12:56:23;10.75;;;8.80;;
66761;SDS011;53672;48.176;16.338;2023-06-10T13:01:23;17.03;;;9.80;;
66761;SDS011;53672;48.176;16.338;2023-06-10T13:06:24;17.07;;;10.23;;
66761;SDS011;53672;48.176;16.338;2023-06-10T13:11:26;14.50;;;9.80;;
66761;SDS011;53672;48.176;16.338;2023-06-10T13:16:26;16.48;;;10.48;;
66761;SDS011;53672;48.176;16.338;2023-06-10T13:21:27;14.70;;;10.67;;
66761;SDS011;53672;48.176;16.338;2023-06-10T13:26:29;14.40;;;10.20;;
66761;SDS011;53672;48.176;16.338;2023-06-10T13:31:29;17.95;;;11.02;;
66761;SDS011;53672;48.176;16.338;2023-06-10T13:36:30;14.43;;;9.67;;
66761;SDS011;53672;48.176;16.338;2023-06-10T13:41:31;12.43;;;8.90;;
66761;SDS011;53672;48.176;16.338;2023-06-10T13:46:32;15.15;;;9.85;;
66761;SDS011;53672;48.176;16.338;2023-06-10T13:51:33;14.43;;;10.07;;
66761;SDS011;53672;48.176;16.338;2023-06-10T13:56:34;13.30;;;8.73;;
66761;SDS011;53672;48.176;16.338;2023-06-10T14:01:35;13.48;;;8.57;;
66761;SDS011;53672;48.176;16.338;2023-06-10T14:06:35;11.77;;;8.50;;
66761;SDS011;53672;48.176;16.338;2023-06-10T14:11:37;13.23;;;9.37;;
66761;SDS011;53672;48.176;16.338;2023-06-10T14:16:38;13.30;;;8.87;;
66761;SDS011;53672;48.176;16.338;2023-06-10T14:21:38;16.20;;;9.63;;
66761;SDS011;53672;48.176;16.338;2023-06-10T14:26:40;13.20;;;9.13;;
66761;SDS011;53672;48.176;16.338;2023-06-10T14:31:41;15.10;;;10.43;;
66761;SDS011;53672;48.176;16.338;2023-06-10T14:36:41;13.83;;;10.13;;
66761;SDS011;53672;48.176;16.338;2023-06-10T14:41:43;14.80;;;10.33;;
66761;SDS011;53672;48.176;16.338;2023-06-10T14:46:43;14.15;;;9.75;;
66761;SDS011;53672;48.176;16.338;2023-06-10T14:51:44;13.53;;;9.50;;
66761;SDS011;53672;48.176;16.338;2023-06-10T14:56:46;14.67;;;10.13;;
66761;SDS011;53672;48.176;16.338;2023-06-10T15:01:46;14.15;;;10.05;;
66761;SDS011;53672;48.176;16.338;2023-06-10T15:06:46;16.97;;;11.70;;
66761;SDS011;53672;48.176;16.338;2023-06-10T15:11:48;13.60;;;9.13;;
66761;SDS011;53672;48.176;16.338;2023-06-10T15:16:49;13.48;;;8.88;;
66761;SDS011;53672;48.176;16.338;2023-06-10T15:21:49;13.32;;;9.30;;
66761;SDS011;53672;48.176;16.338;2023-06-10T15:26:51;12.95;;;9.27;;
66761;SDS011;53672;48.176;16.338;2023-06-10T15:31:51;14.07;;;8.67;;
66761;SDS011;53672;48.176;16.338;2023-06-10T15:36:52;12.87;;;8.60;;
66761;SDS011;53672;48.176;16.338;2023-06-10T15:41:54;11.97;;;6.27;;
66761;SDS011;53672;48.176;16.338;2023-06-10T15:46:54;14.35;;;5.30;;
66761;SDS011;53672;48.176;16.338;2023-06-10T15:51:55;11.17;;;6.00;;
66761;SDS011;53672;48.176;16.338;2023-06-10T15:56:57;12.27;;;6.93;;
66761;SDS011;53672;48.176;16.338;2023-06-10T16:01:57;14.23;;;7.28;;
66761;SDS011;53672;48.176;16.338;2023-06-10T16:06:58;14.23;;;7.60;;
66761;SDS011;53672;48.176;16.338;2023-06-10T16:11:59;15.83;;;8.27;;
66761;SDS011;53672;48.176;16.338;2023-06-10T16:17:00;16.98;;;8.52;;
66761;SDS011;53672;48.176;16.338;2023-06-10T16:22:00;18.17;;;9.80;;
66761;SDS011;53672;48.176;16.338;2023-06-10T16:27:02;16.70;;;7.97;;
66761;SDS011;53672;48.176;16.338;2023-06-10T16:32:03;16.85;;;9.07;;
66761;SDS011;53672;48.176;16.338;2023-06-10T16:37:04;21.23;;;10.73;;
66761;SDS011;53672;48.176;16.338;2023-06-10T16:42:06;20.67;;;11.80;;
66761;SDS011;53672;48.176;16.338;2023-06-10T16:47:07;18.80;;;10.23;;
66761;SDS011;53672;48.176;16.338;2023-06-10T16:52:08;16.80;;;9.83;;
66761;SDS011;53672;48.176;16.338;2023-06-10T16:57:09;17.90;;;10.10;;
66761;SDS011;53672;48.176;16.338;2023-06-10T17:02:10;20.58;;;11.30;;
66761;SDS011;53672;48.176;16.338;2023-06-10T17:07:10;20.00;;;11.70;;
66761;SDS011;53672;48.176;16.338;2023-06-10T17:12:12;19.30;;;11.00;;
66761;SDS011;53672;48.176;16.338;2023-06-10T17:17:13;20.20;;;11.80;;
66761;SDS011;53672;48.176;16.338;2023-06-10T17:22:13;17.50;;;9.93;;
66761;SDS011;53672;48.176;16.338;2023-06-10T17:27:15;18.03;;;10.20;;
66761;SDS011;53672;48.176;16.338;2023-06-10T17:32:15;22.13;;;12.80;;
66761;SDS011;53672;48.176;16.338;2023-06-10T17:37:16;25.50;;;12.30;;
66761;SDS011;53672;48.176;16.338;2023-06-10T17:42:18;21.33;;;11.10;;
66761;SDS011;53672;48.176;16.338;2023-06-10T17:47:18;21.35;;;11.60;;
66761;SDS011;53672;48.176;16.338;2023-06-10T17:52:18;20.90;;;12.13;;
66761;SDS011;53672;48.176;16.338;2023-06-10T17:57:20;20.07;;;12.20;;
66761;SDS011;53672;48.176;16.338;2023-06-10T18:02:21;20.90;;;11.73;;
66761;SDS011;53672;48.176;16.338;2023-06-10T18:07:21;26.47;;;15.17;;
66761;SDS011;53672;48.176;16.338;2023-06-10T18:12:23;21.80;;;12.03;;
66761;SDS011;53672;48.176;16.338;2023-06-10T18:17:24;21.48;;;12.30;;
66761;SDS011;53672;48.176;16.338;2023-06-10T18:22:25;19.67;;;11.40;;
66761;SDS011;53672;48.176;16.338;2023-06-10T18:27:26;26.83;;;15.43;;
66761;SDS011;53672;48.176;16.338;2023-06-10T18:32:27;26.23;;;15.07;;
66761;SDS011;53672;48.176;16.338;2023-06-10T18:37:27;25.73;;;14.20;;
66761;SDS011;53672;48.176;16.338;2023-06-10T18:42:29;23.23;;;13.33;;
66761;SDS011;53672;48.176;16.338;2023-06-10T18:47:30;20.33;;;12.30;;
66761;SDS011;53672;48.176;16.338;2023-06-10T18:52:30;27.63;;;13.17;;
66761;SDS011;53672;48.176;16.338;2023-06-10T18:57:32;23.80;;;13.50;;
66761;SDS011;53672;48.176;16.338;2023-06-10T19:02:32;27.33;;;15.90;;
66761;SDS011;53672;48.176;16.338;2023-06-10T19:07:33;24.30;;;13.37;;
66761;SDS011;53672;48.176;16.338;2023-06-10T19:12:35;21.20;;;12.30;;
66761;SDS011;53672;48.176;16.338;2023-06-10T19:17:35;21.10;;;12.65;;
66761;SDS011;53672;48.176;16.338;2023-06-10T19:22:36;23.83;;;13.23;;
66761;SDS011;53672;48.176;16.338;2023-06-10T19:27:38;20.50;;;12.10;;
66761;SDS011;53672;48.176;16.338;2023-06-10T19:32:38;22.08;;;12.57;;
66761;SDS011;53672;48.176;16.338;2023-06-10T19:37:39;22.27;;;14.50;;
66761;SDS011;53672;48.176;16.338;2023-06-10T19:42:40;21.60;;;12.53;;
66761;SDS011;53672;48.176;16.338;2023-06-10T19:47:41;21.75;;;13.80;;
66761;SDS011;53672;48.176;16.338;2023-06-10T19:52:41;23.38;;;13.13;;
66761;SDS011;53672;48.176;16.338;2023-06-10T19:57:43;26.63;;;16.77;;
66761;SDS011;53672;48.176;16.338;2023-06-10T20:02:44;23.63;;;15.70;;
66761;SDS011;53672;48.176;16.338;2023-06-10T20:07:44;21.83;;;14.20;;
66761;SDS011;53672;48.176;16.338;2023-06-10T20:12:46;20.57;;;13.23;;
66761;SDS011;53672;48.176;16.338;2023-06-10T20:17:46;21.63;;;12.90;;
66761;SDS011;53672;48.176;16.338;2023-06-10T20:22:47;16.87;;;12.00;;
66761;SDS011;53672;48.176;16.338;2023-06-10T20:27:49;23.77;;;16.73;;
66761;SDS011;53672;48.176;16.338;2023-06-10T20:32:49;27.33;;;16.17;;
66761;SDS011;53672;48.176;16.338;2023-06-10T20:37:50;26.73;;;16.27;;
66761;SDS011;53672;48.176;16.338;2023-06-10T20:42:51;21.27;;;14.00;;
66761;SDS011;53672;48.176;16.338;2023-06-10T20:47:52;20.35;;;11.75;;
66761;SDS011;53672;48.176;16.338;2023-06-10T20:52:52;20.92;;;12.00;;
66761;SDS011;53672;48.176;16.338;2023-06-10T20:57:54;19.70;;;11.50;;
66761;SDS011;53672;48.176;16.338;2023-06-10T21:02:55;20.87;;;12.60;;
66761;SDS011;53672;48.176;16.338;2023-06-10T21:07:55;18.90;;;12.07;;
66761;SDS011;53672;48.176;16.338;2023-06-10T21:12:57;21.63;;;12.27;;
66761;SDS011;53672;48.176;16.338;2023-06-10T21:17:57;20.55;;;11.73;;
66761;SDS011;53672;48.176;16.338;2023-06-10T21:22:58;19.90;;;12.87;;
66761;SDS011;53672;48.176;16.338;2023-06-10T21:28:00;23.73;;;12.50;;
66761;SDS011;53672;48.176;16.338;2023-06-10T21:33:00;17.80;;;12.13;;
66761;SDS011;53672;48.176;16.338;2023-06-10T21:38:01;18.17;;;10.90;;
66761;SDS011;53672;48.176;16.338;2023-06-10T21:43:02;19.37;;;12.10;;
66761;SDS011;53672;48.176;16.338;2023-06-10T21:48:03;19.83;;;12.23;;
66761;SDS011;53672;48.176;16.338;2023-06-10T21:53:04;18.13;;;11.57;;
66761;SDS011;53672;48.176;16.338;2023-06-10T21:58:06;19.63;;;11.37;;
66761;SDS011;53672;48.176;16.338;2023-06-10T22:03:06;20.52;;;12.20;;
66761;SDS011;53672;48.176;16.338;2023-06-10T22:08:07;16.93;;;11.10;;
66761;SDS011;53672;48.176;16.338;2023-06-10T22:13:08;19.43;;;11.90;;
66761;SDS011;53672;48.176;16.338;2023-06-10T22:18:09;20.08;;;11.93;;
66761;SDS011;53672;48.176;16.338;2023-06-10T22:23:10;18.70;;;11.50;;
66761;SDS011;53672;48.176;16.338;2023-06-10T22:28:12;20.85;;;11.48;;
66761;SDS011;53672;48.176;16.338;2023-06-10T22:33:12;17.83;;;11.27;;
66761;SDS011;53672;48.176;16.338;2023-06-10T22:38:13;21.60;;;13.47;;
66761;SDS011;53672;48.176;16.338;2023-06-10T22:43:15;19.92;;;11.75;;
66761;SDS011;53672;48.176;16.338;2023-06-10T22:48:15;19.10;;;12.68;;
66761;SDS011;53672;48.176;16.338;2023-06-10T22:53:16;23.23;;;12.17;;
66761;SDS011;53672;48.176;16.338;2023-06-10T22:58:18;17.30;;;11.43;;
66761;SDS011;53672;48.176;16.338;2023-06-10T23:03:18;17.00;;;10.77;;
66761;SDS011;53672;48.176;16.338;2023-06-10T23:08:19;18.23;;;11.07;;
66761;SDS011;53672;48.176;16.338;2023-06-10T23:13:21;19.97;;;11.80;;
66761;SDS011;53672;48.176;16.338;2023-06-10T23:18:21;18.02;;;11.35;;
66761;SDS011;53672;48.176;16.338;2023-06-10T23:23:22;18.53;;;11.30;;
66761;SDS011;53672;48.176;16.338;2023-06-10T23:28:23;17.00;;;10.33;;
66761;SDS011;53672;48.176;16.338;2023-06-10T23:33:24;17.52;;;10.68;;
66761;SDS011;53672;48.176;16.338;2023-06-10T23:38:24;17.13;;;11.03;;
66761;SDS011;53672;48.176;16.338;2023-06-10T23:43:26;16.23;;;10.47;;
66761;SDS011;53672;48.176;16.338;2023-06-10T23:48:27;16.73;;;10.63;;
66761;SDS011;53672;48.176;16.338;2023-06-10T23:53:27;16.75;;;10.82;;
66761;SDS011;53672;48.176;16.338;2023-06-10T23:58:32;21.53;;;11.50;;
